createdAt,value
2019-05-23T00:01:57.619Z,94426.10
2019-05-23T00:04:31.307Z,94426.97
2019-05-23T00:07:02.659Z,94427.38
2019-05-23T00:09:32.811Z,94429.95
2019-05-23T00:12:06.301Z,94431.30
2019-05-23T00:14:39.493Z,94434.32
2019-05-23T00:17:12.497Z,94436.48
2019-05-23T00:19:42.599Z,94432.76
2019-05-23T00:22:11.911Z,94442.27
2019-05-23T00:24:42.682Z,94431.92
2019-05-23T00:27:12.927Z,94430.60
2019-05-23T00:29:48.273Z,94435.28
2019-05-23T00:32:28.512Z,94433.55
2019-05-23T00:34:57.512Z,94440.49
2019-05-23T00:37:30.404Z,94441.78
2019-05-23T00:39:59.559Z,94443.02
2019-05-23T00:42:29.971Z,94444.34
2019-05-23T00:44:59.181Z,94442.23
2019-05-23T00:47:28.446Z,94437.93
2019-05-23T00:49:56.945Z,94441.36
2019-05-23T00:52:26.123Z,94442.23
2019-05-23T00:54:56.104Z,94440.49
2019-05-23T00:57:27.838Z,94436.77
2019-05-23T00:59:58.037Z,94440.98
2019-05-23T01:02:27.992Z,94438.42
2019-05-23T01:04:56.596Z,94446.27
2019-05-23T01:07:26.076Z,94447.63
2019-05-23T01:09:54.980Z,94451.47
2019-05-23T01:12:25.190Z,94445.44
2019-05-23T01:14:54.532Z,94445.85
2019-05-23T01:17:27.174Z,94449.25
2019-05-23T01:19:57.963Z,94449.20
2019-05-23T01:22:26.985Z,94445.36
2019-05-23T01:24:56.328Z,94448.80
2019-05-23T01:27:25.231Z,94443.63
2019-05-23T01:29:56.716Z,94438.95
2019-05-23T01:32:27.489Z,94445.78
2019-05-23T01:34:57.225Z,94444.91
2019-05-23T01:37:28.431Z,94448.30
2019-05-23T01:39:57.454Z,94454.72
2019-05-23T01:42:28.665Z,94458.56
2019-05-23T01:44:59.567Z,94448.26
2019-05-23T01:47:28.606Z,94437.93
2019-05-23T01:49:58.279Z,94447.77
2019-05-23T01:52:27.673Z,94450.33
2019-05-23T01:54:56.441Z,94464.06
2019-05-23T01:57:25.454Z,94464.97
2019-05-23T02:00:08.883Z,94465.80
2019-05-23T02:02:27.458Z,94467.53
2019-05-23T02:04:56.375Z,94463.23
2019-05-23T02:07:24.981Z,94465.31
2019-05-23T02:09:53.747Z,94469.12
2019-05-23T02:12:23.090Z,94469.56
2019-05-23T02:14:52.262Z,94478.55
2019-05-23T02:17:21.667Z,94479.04
2019-05-23T02:19:51.851Z,94482.47
2019-05-23T02:22:20.460Z,94487.22
2019-05-23T02:24:48.916Z,94492.80
2019-05-23T02:27:19.227Z,94485.19
2019-05-23T02:29:47.896Z,94493.78
2019-05-23T02:32:18.399Z,94501.63
2019-05-23T02:34:47.677Z,94501.22
2019-05-23T02:37:18.059Z,94506.84
2019-05-23T02:40:06.596Z,94510.27
2019-05-23T02:42:37.174Z,94515.77
2019-05-23T02:45:09.599Z,94507.73
2019-05-23T02:47:39.941Z,94512.03
2019-05-23T02:50:13.255Z,94510.34
2019-05-23T02:52:46.532Z,94518.00
2019-05-23T02:55:18.900Z,94517.16
2019-05-23T02:57:48.517Z,94522.33
2019-05-23T03:00:27.363Z,94523.13
2019-05-23T03:03:00.354Z,94518.83
2019-05-23T03:05:29.050Z,94526.14
2019-05-23T03:07:59.437Z,94527.91
2019-05-23T03:10:32.593Z,94525.69
2019-05-23T03:13:02.163Z,94526.52
2019-05-23T03:15:33.263Z,94528.63
2019-05-23T03:18:05.021Z,94527.31
2019-05-23T03:20:35.321Z,94531.13
2019-05-23T03:23:09.655Z,94524.41
2019-05-23T03:25:41.538Z,94529.08
2019-05-23T03:28:12.677Z,94529.50
2019-05-23T03:30:52.013Z,94534.17
2019-05-23T03:33:21.017Z,94532.48
2019-05-23T03:35:51.476Z,94529.91
2019-05-23T03:38:21.279Z,94529.39
2019-05-23T03:40:50.183Z,94530.18
2019-05-23T03:43:19.245Z,94533.08
2019-05-23T03:45:55.934Z,94533.91
2019-05-23T03:48:25.434Z,94534.75
2019-05-23T03:50:55.709Z,94531.27
2019-05-23T03:53:25.667Z,94529.09
2019-05-23T03:55:54.332Z,94523.02
2019-05-23T03:58:25.422Z,94525.92
2019-05-23T04:00:56.061Z,94519.92
2019-05-23T04:03:26.782Z,94525.42
2019-05-23T04:05:56.424Z,94528.78
2019-05-23T04:08:27.075Z,94527.42
2019-05-23T04:10:56.283Z,94536.36
2019-05-23T04:13:25.602Z,94530.78
2019-05-23T04:15:54.294Z,94535.42
2019-05-23T04:18:24.055Z,94538.39
2019-05-23T04:20:52.764Z,94546.92
2019-05-23T04:23:22.152Z,94546.92
2019-05-23T04:25:51.105Z,94546.43
2019-05-23T04:28:20.736Z,94545.98
2019-05-23T04:30:50.318Z,94554.05
2019-05-23T04:33:19.038Z,94551.48
2019-05-23T04:35:48.220Z,94555.30
2019-05-23T04:38:17.011Z,94559.55
2019-05-23T04:40:46.869Z,94559.19
2019-05-23T04:43:15.539Z,94568.16
2019-05-23T04:45:44.874Z,94560.05
2019-05-23T04:48:13.478Z,94563.89
2019-05-23T04:50:42.589Z,94571.59
2019-05-23T04:53:11.326Z,94574.20
2019-05-23T04:55:40.376Z,94578.50
2019-05-23T04:58:10.179Z,94585.36
2019-05-23T05:00:39.089Z,94587.52
2019-05-23T05:03:08.760Z,94597.29
2019-05-23T05:05:37.708Z,94593.09
2019-05-23T05:08:06.716Z,94595.66
2019-05-23T05:10:36.586Z,94601.62
2019-05-23T05:13:05.674Z,94602.80
2019-05-23T05:15:34.591Z,94605.36
2019-05-23T05:18:03.576Z,94613.92
2019-05-23T05:20:33.443Z,94614.27
2019-05-23T05:23:02.285Z,94617.21
2019-05-23T05:25:31.464Z,94615.09
2019-05-23T05:28:00.783Z,94617.17
2019-05-23T05:30:29.803Z,94620.91
2019-05-23T05:32:59.374Z,94629.41
2019-05-23T05:35:30.150Z,94627.73
2019-05-23T05:37:58.856Z,94630.69
2019-05-23T05:40:28.131Z,94634.53
2019-05-23T05:42:56.776Z,94637.10
2019-05-23T05:45:25.317Z,94639.17
2019-05-23T05:47:54.203Z,94638.69
2019-05-23T05:50:23.494Z,94642.00
2019-05-23T05:52:52.042Z,94645.78
2019-05-23T05:55:21.248Z,94642.84
2019-05-23T05:57:49.851Z,94641.52
2019-05-23T06:00:27.412Z,94647.86
2019-05-23T06:03:04.461Z,94657.19
2019-05-23T06:05:41.633Z,94654.12
2019-05-23T06:08:11.897Z,94648.50
2019-05-23T06:10:40.443Z,94652.55
2019-05-23T06:13:09.047Z,94660.20
2019-05-23T06:15:37.728Z,94664.44
2019-05-23T06:18:06.416Z,94668.81
2019-05-23T06:20:36.003Z,94670.43
2019-05-23T06:23:05.680Z,94672.39
2019-05-23T06:25:35.114Z,94673.27
2019-05-23T06:28:04.313Z,94675.84
2019-05-23T06:30:34.119Z,94678.70
2019-05-23T06:33:19.767Z,94680.29
2019-05-23T06:35:33.379Z,94677.98
2019-05-23T06:38:02.983Z,94676.92
2019-05-23T06:40:33.486Z,94684.88
2019-05-23T06:43:02.164Z,94684.31
2019-05-23T06:45:31.129Z,94690.47
2019-05-23T06:47:59.788Z,94684.30
2019-05-23T06:50:30.662Z,94688.11
2019-05-23T06:52:59.688Z,94693.58
2019-05-23T06:55:29.910Z,94696.08
2019-05-23T06:57:58.984Z,94694.22
2019-05-23T07:00:28.397Z,94697.67
2019-05-23T07:02:57.206Z,94697.31
2019-05-23T07:05:28.914Z,94697.02
2019-05-23T07:07:57.676Z,94695.47
2019-05-23T07:10:26.619Z,94695.56
2019-05-23T07:12:55.149Z,94695.14
2019-05-23T07:15:25.417Z,94707.04
2019-05-23T07:17:54.799Z,94701.98
2019-05-23T07:20:23.420Z,94705.05
2019-05-23T07:22:52.105Z,94712.34
2019-05-23T07:25:22.427Z,94711.77
2019-05-23T07:27:51.912Z,94712.44
2019-05-23T07:30:25.903Z,94717.42
2019-05-23T07:32:54.979Z,94713.56
2019-05-23T07:35:24.467Z,94721.73
2019-05-23T07:37:53.094Z,94725.13
2019-05-23T07:40:23.676Z,94728.73
2019-05-23T07:42:52.701Z,94730.02
2019-05-23T07:45:35.167Z,94739.39
2019-05-23T07:48:03.852Z,94738.94
2019-05-23T07:50:33.176Z,94731.64
2019-05-23T07:53:03.686Z,94732.47
2019-05-23T07:55:34.223Z,94733.09
2019-05-23T07:58:02.822Z,94732.80
2019-05-23T08:00:33.074Z,94729.64
2019-05-23T08:03:04.398Z,94727.77
2019-05-23T08:05:34.161Z,94737.61
2019-05-23T08:08:04.515Z,94736.16
2019-05-23T08:10:34.568Z,94740.63
2019-05-23T08:13:03.933Z,94742.03
2019-05-23T08:15:34.705Z,94740.98
2019-05-23T08:18:04.653Z,94743.05
2019-05-23T08:20:33.638Z,94746.78
2019-05-23T08:23:02.475Z,94746.94
2019-05-23T08:25:31.136Z,94748.78
2019-05-23T08:28:00.000Z,94749.11
2019-05-23T08:30:28.664Z,94748.53
2019-05-23T08:32:57.326Z,94754.09
2019-05-23T08:35:26.363Z,94755.92
2019-05-23T08:37:55.380Z,94759.78
2019-05-23T08:40:25.645Z,94759.73
2019-05-23T08:42:54.534Z,94764.94
2019-05-23T08:45:23.539Z,94764.84
2019-05-23T08:47:52.576Z,94757.49
2019-05-23T08:50:22.450Z,94765.34
2019-05-23T08:52:51.146Z,94764.66
2019-05-23T08:55:27.302Z,94768.64
2019-05-23T08:57:56.866Z,94771.27
2019-05-23T09:00:27.809Z,94771.52
2019-05-23T09:02:59.158Z,94771.69
2019-05-23T09:05:32.940Z,94771.86
2019-05-23T09:08:01.936Z,94777.55
2019-05-23T09:10:31.305Z,94773.36
2019-05-23T09:13:00.257Z,94778.10
2019-05-23T09:15:28.864Z,94770.00
2019-05-23T09:17:57.802Z,94763.81
2019-05-23T09:20:26.475Z,94776.71
2019-05-23T09:22:55.311Z,94772.55
2019-05-23T09:25:23.921Z,94774.03
2019-05-23T09:27:53.630Z,94781.17
2019-05-23T09:30:26.227Z,94777.21
2019-05-23T09:32:55.257Z,94777.03
2019-05-23T09:35:24.128Z,94789.73
2019-05-23T09:37:53.639Z,94785.23
2019-05-23T09:40:22.988Z,94788.59
2019-05-23T09:42:53.070Z,94792.46
2019-05-23T09:45:23.879Z,94792.78
2019-05-23T09:47:52.419Z,94796.42
2019-05-23T09:50:22.893Z,94799.91
2019-05-23T09:52:51.905Z,94799.32
2019-05-23T09:55:21.674Z,94800.19
2019-05-23T09:57:50.667Z,94807.83
2019-05-23T10:00:21.386Z,94807.58
2019-05-23T10:02:50.590Z,94807.12
2019-05-23T10:05:19.258Z,94812.05
2019-05-23T10:07:48.230Z,94812.63
2019-05-23T10:10:17.798Z,94815.70
2019-05-23T10:12:46.788Z,94817.50
2019-05-23T10:15:17.835Z,94816.66
2019-05-23T10:17:46.406Z,94820.37
2019-05-23T10:20:15.260Z,94828.77
2019-05-23T10:22:43.886Z,94825.16
2019-05-23T10:25:12.772Z,94829.52
2019-05-23T10:27:42.150Z,94831.31
2019-05-23T10:30:13.911Z,94827.36
2019-05-23T10:32:42.457Z,94829.52
2019-05-23T10:35:13.030Z,94827.12
2019-05-23T10:37:41.930Z,94825.83
2019-05-23T10:40:10.603Z,94825.99
2019-05-23T10:42:39.573Z,94832.55
2019-05-23T10:45:10.222Z,94827.98
2019-05-23T10:47:38.833Z,94830.98
2019-05-23T10:50:10.274Z,94838.16
2019-05-23T10:52:39.329Z,94839.27
2019-05-23T10:55:11.430Z,94844.75
2019-05-23T10:57:40.032Z,94837.16
2019-05-23T11:00:11.654Z,94844.80
2019-05-23T11:02:40.899Z,94843.92
2019-05-23T11:05:13.651Z,94842.72
2019-05-23T11:07:41.942Z,94841.60
2019-05-23T11:10:11.744Z,94846.33
2019-05-23T11:12:41.085Z,94846.04
2019-05-23T11:15:10.684Z,94842.52
2019-05-23T11:17:40.538Z,94847.53
2019-05-23T11:20:11.194Z,94849.95
2019-05-23T11:22:40.057Z,94841.68
2019-05-23T11:25:10.587Z,94838.81
2019-05-23T11:27:39.512Z,94839.00
2019-05-23T11:30:13.976Z,94842.16
2019-05-23T11:32:42.641Z,94835.38
2019-05-23T11:35:11.834Z,94833.69
2019-05-23T11:37:42.559Z,94831.58
2019-05-23T11:40:11.311Z,94841.37
2019-05-23T11:42:40.302Z,94834.30
2019-05-23T11:45:09.638Z,94832.81
2019-05-23T11:47:38.257Z,94832.20
2019-05-23T11:50:08.593Z,94836.67
2019-05-23T11:52:37.663Z,94834.52
2019-05-23T11:55:08.238Z,94833.14
2019-05-23T11:57:38.461Z,94834.73
2019-05-23T12:00:10.781Z,94832.86
2019-05-23T12:02:47.859Z,94836.09
2019-05-23T12:05:20.803Z,94828.72
2019-05-23T12:07:49.602Z,94831.86
2019-05-23T12:10:18.545Z,94830.19
2019-05-23T12:12:47.151Z,94831.13
2019-05-23T12:15:18.869Z,94826.65
2019-05-23T12:17:47.710Z,94824.45
2019-05-23T12:20:17.593Z,94829.42
2019-05-23T12:22:46.670Z,94826.34
2019-05-23T12:25:22.625Z,94827.50
2019-05-23T12:27:46.727Z,94834.13
2019-05-23T12:30:16.958Z,94833.02
2019-05-23T12:32:45.541Z,94826.37
2019-05-23T12:35:14.945Z,94832.08
2019-05-23T12:37:43.516Z,94839.13
2019-05-23T12:40:12.683Z,94842.98
2019-05-23T12:42:41.306Z,94842.16
2019-05-23T12:45:10.881Z,94840.78
2019-05-23T12:47:57.288Z,94841.66
2019-05-23T12:50:33.640Z,94840.41
2019-05-23T12:53:04.751Z,94842.47
2019-05-23T12:55:33.083Z,94845.05
2019-05-23T12:58:01.994Z,94848.31
2019-05-23T13:00:32.298Z,94844.62
2019-05-23T13:03:01.767Z,94844.47
2019-05-23T13:05:31.354Z,94843.36
2019-05-23T13:08:00.634Z,94845.14
2019-05-23T13:10:29.383Z,94847.77
2019-05-23T13:12:58.030Z,94845.70
2019-05-23T13:15:27.290Z,94844.48
2019-05-23T13:17:55.908Z,94844.58
2019-05-23T13:20:25.299Z,94844.03
2019-05-23T13:22:54.199Z,94845.09
2019-05-23T13:25:23.547Z,94845.31
2019-05-23T13:27:52.390Z,94839.54
2019-05-23T13:30:20.994Z,94846.81
2019-05-23T13:32:50.016Z,94853.03
2019-05-23T13:35:18.910Z,94859.84
2019-05-23T13:37:53.682Z,94858.46
2019-05-23T13:40:18.214Z,94856.27
2019-05-23T13:42:47.079Z,94863.11
2019-05-23T13:45:16.183Z,94873.96
2019-05-23T13:47:45.408Z,94873.52
2019-05-23T13:50:14.976Z,94876.26
2019-05-23T13:52:43.964Z,94885.73
2019-05-23T13:55:14.339Z,94885.94
2019-05-23T13:57:43.332Z,94893.38
2019-05-23T14:00:15.307Z,94898.22
2019-05-23T14:02:44.614Z,94897.52
2019-05-23T14:05:18.744Z,94894.35
2019-05-23T14:07:45.377Z,94895.71
2019-05-23T14:10:14.397Z,94896.09
2019-05-23T14:12:43.627Z,94891.44
2019-05-23T14:15:14.203Z,94888.91
2019-05-23T14:17:46.489Z,94892.23
2019-05-23T14:20:16.202Z,94889.83
2019-05-23T14:22:47.790Z,94888.50
2019-05-23T14:25:17.764Z,94888.80
2019-05-23T14:27:48.495Z,94882.73
2019-05-23T14:30:31.814Z,94888.72
2019-05-23T14:33:20.457Z,94884.81
2019-05-23T14:35:51.119Z,94890.45
2019-05-23T14:38:30.256Z,94888.63
2019-05-23T14:40:50.022Z,94896.94
2019-05-23T14:43:28.923Z,94898.34
2019-05-23T14:46:02.074Z,94896.72
2019-05-23T14:48:48.431Z,94888.33
2019-05-23T14:51:29.120Z,94890.95
2019-05-23T14:53:59.461Z,94889.66
2019-05-23T14:56:32.927Z,94896.63
2019-05-23T14:59:01.651Z,94897.58
2019-05-23T15:01:31.934Z,94896.53
2019-05-23T15:04:02.022Z,94892.87
2019-05-23T15:06:31.020Z,94893.97
2019-05-23T15:08:59.767Z,94897.19
2019-05-23T15:11:29.047Z,94900.75
2019-05-23T15:13:57.677Z,94900.45
2019-05-23T15:16:26.967Z,94903.17
2019-05-23T15:18:55.763Z,94899.70
2019-05-23T15:21:24.324Z,94910.63
2019-05-23T15:23:52.932Z,94904.69
2019-05-23T15:26:23.729Z,94907.36
2019-05-23T15:28:51.815Z,94904.87
2019-05-23T15:31:20.670Z,94901.95
2019-05-23T15:33:49.178Z,94903.05
2019-05-23T15:36:18.038Z,94901.91
2019-05-23T15:38:46.763Z,94900.72
2019-05-23T15:41:15.646Z,94903.67
2019-05-23T15:43:44.527Z,94901.48
2019-05-23T15:46:13.106Z,94904.51
2019-05-23T15:48:42.018Z,94901.63
2019-05-23T15:51:12.263Z,94902.16
2019-05-23T15:53:42.438Z,94907.36
2019-05-23T15:56:26.885Z,94914.77
2019-05-23T15:58:57.093Z,94902.65
2019-05-23T16:01:28.042Z,94908.20
2019-05-23T16:04:01.211Z,94911.81
2019-05-23T16:06:30.659Z,94905.01
2019-05-23T16:08:59.590Z,94908.06
2019-05-23T16:11:28.813Z,94912.30
2019-05-23T16:13:57.669Z,94912.72
2019-05-23T16:16:27.943Z,94913.96
2019-05-23T16:18:56.560Z,94911.02
2019-05-23T16:21:26.601Z,94907.61
2019-05-23T16:23:55.145Z,94910.00
2019-05-23T16:26:23.678Z,94911.73
2019-05-23T16:28:52.582Z,94909.03
2019-05-23T16:31:21.271Z,94913.44
2019-05-23T16:33:49.857Z,94916.42
2019-05-23T16:36:18.830Z,94916.42
2019-05-23T16:38:47.502Z,94916.84
2019-05-23T16:41:16.458Z,94914.30
2019-05-23T16:43:45.370Z,94909.62
2019-05-23T16:46:13.935Z,94919.92
2019-05-23T16:48:42.535Z,94915.83
2019-05-23T16:51:11.151Z,94919.70
2019-05-23T16:53:40.344Z,94918.52
2019-05-23T16:56:10.792Z,94922.44
2019-05-23T16:58:57.270Z,94915.67
2019-05-23T17:01:56.115Z,94924.66
2019-05-23T17:04:27.335Z,94926.14
2019-05-23T17:06:57.707Z,94922.80
2019-05-23T17:09:39.968Z,94927.62
2019-05-23T17:12:25.009Z,94932.49
2019-05-23T17:14:58.097Z,94933.45
2019-05-23T17:17:57.140Z,94930.66
2019-05-23T17:20:19.642Z,94931.53
2019-05-23T17:22:48.235Z,94938.00
2019-05-23T17:25:33.938Z,94937.09
2019-05-23T17:28:18.529Z,94938.88
2019-05-23T17:30:51.944Z,94938.20
2019-05-23T17:33:21.746Z,94939.92
2019-05-23T17:35:50.356Z,94941.06
2019-05-23T17:38:19.171Z,94945.50
2019-05-23T17:40:47.709Z,94942.04
2019-05-23T17:43:16.346Z,94943.44
2019-05-23T17:45:44.984Z,94937.98
2019-05-23T17:48:13.618Z,94940.97
2019-05-23T17:50:42.272Z,94946.53
2019-05-23T17:53:10.883Z,94944.86
2019-05-23T17:55:39.556Z,94943.31
2019-05-23T17:58:08.159Z,94947.63
2019-05-23T18:00:41.846Z,94940.86
2019-05-23T18:03:11.520Z,94949.80
2019-05-23T18:05:40.499Z,94949.80
2019-05-23T18:08:10.159Z,94955.31
2019-05-23T18:10:45.225Z,94953.23
2019-05-23T18:13:11.087Z,94963.45
2019-05-23T18:15:40.586Z,94958.72
2019-05-23T18:18:10.685Z,94965.09
2019-05-23T18:20:39.955Z,94973.17
2019-05-23T18:23:10.477Z,94966.05
2019-05-23T18:25:40.057Z,94977.58
2019-05-23T18:28:09.456Z,94980.95
2019-05-23T18:30:55.995Z,94987.00
2019-05-23T18:33:25.494Z,94984.02
2019-05-23T18:35:55.924Z,94985.74
2019-05-23T18:38:25.343Z,94988.08
2019-05-23T18:41:04.073Z,94988.99
2019-05-23T18:43:27.808Z,94990.72
2019-05-23T18:45:58.058Z,94990.36
2019-05-23T18:48:27.444Z,94995.04
2019-05-23T18:50:56.486Z,94992.50
2019-05-23T18:53:25.010Z,95001.16
2019-05-23T18:55:53.894Z,94999.06
2019-05-23T18:58:22.434Z,95003.83
2019-05-23T19:00:54.526Z,95008.89
2019-05-23T19:03:23.626Z,95011.53
2019-05-23T19:05:52.863Z,95015.41
2019-05-23T19:08:22.143Z,95011.09
2019-05-23T19:10:50.743Z,95011.17
2019-05-23T19:13:19.550Z,95012.01
2019-05-23T19:15:48.791Z,95015.48
2019-05-23T19:18:17.545Z,95012.45
2019-05-23T19:20:48.376Z,95018.86
2019-05-23T19:23:16.991Z,95015.02
2019-05-23T19:25:46.314Z,95017.97
2019-05-23T19:28:15.586Z,95016.23
2019-05-23T19:30:45.397Z,95018.39
2019-05-23T19:33:14.210Z,95016.69
2019-05-23T19:35:46.811Z,95022.63
2019-05-23T19:38:13.733Z,95011.88
2019-05-23T19:40:42.680Z,95020.42
2019-05-23T19:43:13.234Z,95024.72
2019-05-23T19:45:41.836Z,95025.97
2019-05-23T19:48:10.448Z,95029.00
2019-05-23T19:50:39.854Z,95034.57
2019-05-23T19:53:08.476Z,95035.86
2019-05-23T19:55:40.432Z,95037.08
2019-05-23T19:58:09.748Z,95040.92
2019-05-23T20:00:40.098Z,95036.72
2019-05-23T20:03:09.803Z,95047.41
2019-05-23T20:05:40.415Z,95040.17
2019-05-23T20:08:10.572Z,95036.32
2019-05-23T20:10:39.818Z,95034.70
2019-05-23T20:13:08.420Z,95025.31
2019-05-23T20:15:38.542Z,95023.64
2019-05-23T20:18:08.643Z,95024.45
2019-05-23T20:20:39.122Z,95015.51
2019-05-23T20:23:09.403Z,95019.33
2019-05-23T20:25:38.772Z,95020.61
2019-05-23T20:28:08.279Z,95020.23
2019-05-23T20:30:45.830Z,95017.63
2019-05-23T20:33:15.449Z,95020.58
2019-05-23T20:35:45.004Z,95023.06
2019-05-23T20:38:13.851Z,95018.78
2019-05-23T20:40:42.466Z,95020.89
2019-05-23T20:43:11.543Z,95023.91
2019-05-23T20:45:41.232Z,95016.22
2019-05-23T20:48:11.035Z,95014.91
2019-05-23T20:50:40.584Z,95025.16
2019-05-23T20:53:10.142Z,95020.89
2019-05-23T20:55:38.780Z,95027.36
2019-05-23T20:58:08.481Z,95022.63
2019-05-23T21:00:39.023Z,95030.27
2019-05-23T21:03:07.635Z,95023.41
2019-05-23T21:05:36.814Z,95027.28
2019-05-23T21:08:05.445Z,95028.64
2019-05-23T21:10:43.906Z,95029.47
2019-05-23T21:13:12.890Z,95029.86
2019-05-23T21:15:41.447Z,95029.11
2019-05-23T21:18:10.053Z,95031.69
2019-05-23T21:20:38.616Z,95029.11
2019-05-23T21:23:11.864Z,95025.27
2019-05-23T21:25:42.381Z,95027.83
2019-05-23T21:28:11.088Z,95027.38
2019-05-23T21:30:39.979Z,95033.39
2019-05-23T21:33:08.877Z,95029.97
2019-05-23T21:35:37.735Z,95031.25
2019-05-23T21:38:06.493Z,95034.25
2019-05-23T21:40:38.076Z,95038.09
2019-05-23T21:43:06.706Z,95037.75
2019-05-23T21:45:35.311Z,95042.02
2019-05-23T21:48:04.372Z,95037.75
2019-05-23T21:50:33.194Z,95037.75
2019-05-23T21:53:02.332Z,95039.45
2019-05-23T21:55:42.366Z,95037.75
2019-05-23T21:58:13.964Z,95036.00
2019-05-23T22:00:58.390Z,95039.40
2019-05-23T22:03:28.939Z,95036.45
2019-05-23T22:05:57.637Z,95035.19
2019-05-23T22:08:27.552Z,95035.24
2019-05-23T22:10:56.184Z,95029.25
2019-05-23T22:13:25.004Z,95036.91
2019-05-23T22:15:55.278Z,95039.48
2019-05-23T22:18:24.064Z,95030.13
2019-05-23T22:20:52.665Z,95033.08
2019-05-23T22:23:21.389Z,95027.50
2019-05-23T22:25:49.985Z,95036.00
2019-05-23T22:28:19.080Z,95038.13
2019-05-23T22:30:47.693Z,95036.84
2019-05-23T22:33:18.258Z,95027.03
2019-05-23T22:35:46.902Z,95030.44
2019-05-23T22:38:15.451Z,95024.94
2019-05-23T22:40:44.107Z,95031.34
2019-05-23T22:43:20.613Z,95024.94
2019-05-23T22:45:43.120Z,95021.97
2019-05-23T22:48:11.729Z,95024.11
2019-05-23T22:50:40.333Z,95022.45
2019-05-23T22:53:09.062Z,95019.53
2019-05-23T22:55:37.861Z,95018.27
2019-05-23T22:58:06.953Z,95018.80
2019-05-23T23:00:40.083Z,95017.02
2019-05-23T23:03:09.156Z,95013.59
2019-05-23T23:05:37.632Z,95009.75
2019-05-23T23:08:06.473Z,95012.31
2019-05-23T23:10:35.086Z,95011.52
2019-05-23T23:13:04.127Z,95004.70
2019-05-23T23:15:33.627Z,95003.81
2019-05-23T23:18:02.089Z,95004.28
2019-05-23T23:20:30.702Z,95005.98
2019-05-23T23:22:59.373Z,95006.82
2019-05-23T23:25:28.755Z,94996.52
2019-05-23T23:27:57.358Z,94998.61
2019-05-23T23:30:33.636Z,95004.16
2019-05-23T23:33:02.254Z,95000.78
2019-05-23T23:35:33.984Z,95007.66
2019-05-23T23:38:02.536Z,95002.98
2019-05-23T23:40:31.134Z,95004.26
2019-05-23T23:42:59.783Z,95003.00
2019-05-23T23:45:47.434Z,95004.30
2019-05-23T23:48:34.011Z,95009.02
2019-05-23T23:51:20.554Z,95001.82
2019-05-23T23:54:07.172Z,95003.13
2019-05-23T23:56:54.482Z,95003.13
2019-05-23T23:59:22.261Z,95006.13
